Time;durP1;ratioP1;P1;durP2;ratioP2;P2;SDS_P1;SDS_P2;PMS_P1;PMS_P2;Temp;Humidity;BMP_temperature;BMP_pressure;BME280_temperature;BME280_humidity;BME280_pressure;Samples;Min_cycle;Max_cycle;Signal;HPM_P1;HPM_P2
2021/01/09 00:00:21;;;;;;;3.03;0.20;;;;;;;;;;6184529;23;20216;-39
2021/01/09 00:02:49;;;;;;;6.57;1.67;;;;;;;;;;6184496;23;20005;-41
2021/01/09 00:05:16;;;;;;;4.32;0.90;;;;;;;;;;6184369;23;20005;-41
2021/01/09 00:07:43;;;;;;;4.65;1.10;;;;;;;;;;6184439;23;20016;-43
2021/01/09 00:10:11;;;;;;;5.80;0.63;;;;;;;;;;6184404;23;20048;-41
2021/01/09 00:12:38;;;;;;;2.35;0.52;;;;;;;;;;6184517;23;20048;-44
2021/01/09 00:15:06;;;;;;;1.50;0.50;;;;;;;;;;6184097;23;20444;-43
2021/01/09 00:17:34;;;;;;;2.50;0.35;;;;;;;;;;6184524;23;20001;-42
2021/01/09 00:20:01;;;;;;;1.20;0.30;;;;;;;;;;6184428;23;20033;-43
2021/01/09 00:22:28;;;;;;;3.72;0.22;;;;;;;;;;6184447;23;20418;-45
2021/01/09 00:24:55;;;;;;;2.63;0.35;;;;;;;;;;6183216;23;20618;-42
2021/01/09 00:27:22;;;;;;;0.75;0.30;;;;;;;;;;6184189;23;20005;-44
2021/01/09 00:29:49;;;;;;;0.28;0.20;;;;;;;;;;6182455;23;20005;-43
2021/01/09 00:32:16;;;;;;;1.35;0.30;;;;;;;;;;6184028;23;20096;-46
2021/01/09 00:34:43;;;;;;;1.65;0.45;;;;;;;;;;6184300;23;20005;-44
2021/01/09 00:37:10;;;;;;;2.03;0.30;;;;;;;;;;6183832;23;20005;-43
2021/01/09 00:39:37;;;;;;;1.85;0.80;;;;;;;;;;6182970;23;20020;-43
2021/01/09 00:42:04;;;;;;;1.80;0.50;;;;;;;;;;6184296;23;20008;-44
2021/01/09 00:44:31;;;;;;;0.60;0.45;;;;;;;;;;6182860;23;20044;-45
2021/01/09 00:46:58;;;;;;;8.38;0.52;;;;;;;;;;6182705;23;20005;-45
2021/01/09 00:49:27;;;;;;;0.68;0.20;;;;;;;;;;6183899;23;20051;-47
2021/01/09 00:51:55;;;;;;;0.52;0.30;;;;;;;;;;6183635;23;20009;-46
2021/01/09 00:54:23;;;;;;;2.67;0.38;;;;;;;;;;6183155;23;20007;-45
2021/01/09 00:56:57;;;;;;;1.65;0.40;;;;;;;;;;6183821;23;20012;-46
2021/01/09 00:59:25;;;;;;;4.43;0.32;;;;;;;;;;6182403;23;20001;-47
2021/01/09 01:01:53;;;;;;;0.55;0.32;;;;;;;;;;6183374;23;20020;-46
2021/01/09 01:04:21;;;;;;;9.02;0.30;;;;;;;;;;6181981;23;20084;-45
2021/01/09 01:06:50;;;;;;;0.20;0.10;;;;;;;;;;6182202;23;20028;-46
2021/01/09 01:09:18;;;;;;;3.13;0.30;;;;;;;;;;6183226;23;20001;-46
2021/01/09 01:11:46;;;;;;;0.55;0.22;;;;;;;;;;6183281;23;20068;-44
2021/01/09 01:14:14;;;;;;;1.30;0.25;;;;;;;;;;6183474;23;20084;-46
2021/01/09 01:16:43;;;;;;;1.55;0.30;;;;;;;;;;6183327;23;20040;-46
2021/01/09 01:19:12;;;;;;;1.73;0.40;;;;;;;;;;6181500;23;20021;-46
2021/01/09 01:21:40;;;;;;;0.95;0.40;;;;;;;;;;6181729;23;20334;-46
2021/01/09 01:24:08;;;;;;;6.95;0.30;;;;;;;;;;6183147;23;20017;-45
2021/01/09 01:26:35;;;;;;;0.98;0.30;;;;;;;;;;6183850;23;20013;-46
2021/01/09 01:29:03;;;;;;;3.13;0.52;;;;;;;;;;6183255;23;20004;-43
2021/01/09 01:31:30;;;;;;;3.88;0.47;;;;;;;;;;6181297;23;20333;-44
2021/01/09 01:33:57;;;;;;;6.55;0.50;;;;;;;;;;6183269;23;20005;-45
2021/01/09 01:36:24;;;;;;;4.70;0.40;;;;;;;;;;6183482;23;20001;-45
2021/01/09 01:38:51;;;;;;;3.22;0.60;;;;;;;;;;6183601;23;20438;-45
2021/01/09 01:41:18;;;;;;;6.10;0.52;;;;;;;;;;6182817;23;20016;-45
2021/01/09 01:43:45;;;;;;;1.17;0.35;;;;;;;;;;6183396;23;20005;-46
2021/01/09 01:46:15;;;;;;;4.38;0.60;;;;;;;;;;6183544;23;19993;-45
2021/01/09 01:48:42;;;;;;;1.73;0.50;;;;;;;;;;6183520;23;20009;-47
2021/01/09 01:51:13;;;;;;;3.35;0.65;;;;;;;;;;6183188;23;20013;-49
2021/01/09 01:53:40;;;;;;;0.50;0.35;;;;;;;;;;6183940;23;20001;-45
2021/01/09 01:56:07;;;;;;;1.17;0.40;;;;;;;;;;6183957;23;19997;-44
2021/01/09 01:58:34;;;;;;;0.32;0.30;;;;;;;;;;6183180;23;20001;-44
2021/01/09 02:01:01;;;;;;;1.27;0.52;;;;;;;;;;6183318;23;20047;-44
2021/01/09 02:03:28;;;;;;;1.95;0.40;;;;;;;;;;6183165;23;20005;-43
2021/01/09 02:06:16;;;;;;;0.10;0.10;;;;;;;;;;6183454;23;20016;-44
2021/01/09 02:08:43;;;;;;;2.10;0.47;;;;;;;;;;6183189;23;20011;-44
2021/01/09 02:11:16;;;;;;;1.55;0.50;;;;;;;;;;6181397;23;20448;-44
2021/01/09 02:13:43;;;;;;;2.30;0.43;;;;;;;;;;6182892;23;20001;-45
2021/01/09 02:16:11;;;;;;;1.85;0.40;;;;;;;;;;6182580;23;20001;-44
2021/01/09 02:18:40;;;;;;;0.70;0.40;;;;;;;;;;6181489;23;20005;-44
2021/01/09 02:21:16;;;;;;;0.68;0.30;;;;;;;;;;6183394;23;20055;-44
2021/01/09 02:23:43;;;;;;;1.90;0.30;;;;;;;;;;6183004;23;20019;-44
2021/01/09 02:26:11;;;;;;;3.72;0.30;;;;;;;;;;6183557;23;20495;-44
2021/01/09 02:28:38;;;;;;;0.47;0.20;;;;;;;;;;6183026;23;20001;-44
2021/01/09 02:31:05;;;;;;;0.85;0.38;;;;;;;;;;6182893;23;20001;-43
2021/01/09 02:33:34;;;;;;;0.63;0.25;;;;;;;;;;6181302;23;20071;-45
2021/01/09 02:36:02;;;;;;;0.47;0.25;;;;;;;;;;6182553;23;20425;-45
2021/01/09 02:38:29;;;;;;;11.32;0.40;;;;;;;;;;6182635;23;20028;-45
2021/01/09 02:40:56;;;;;;;5.32;0.32;;;;;;;;;;6181401;23;20369;-44
2021/01/09 02:43:27;;;;;;;6.47;0.60;;;;;;;;;;6183000;23;20013;-45
2021/01/09 02:45:53;;;;;;;6.50;0.82;;;;;;;;;;6182592;23;19997;-45
2021/01/09 02:48:20;;;;;;;9.02;0.47;;;;;;;;;;6182445;23;20004;-44
2021/01/09 02:50:47;;;;;;;4.95;0.82;;;;;;;;;;6182549;23;20012;-44
2021/01/09 02:53:15;;;;;;;0.57;0.30;;;;;;;;;;6183048;23;20009;-47
2021/01/09 02:55:43;;;;;;;7.65;0.70;;;;;;;;;;6182957;23;20298;-45
2021/01/09 02:58:10;;;;;;;1.52;0.55;;;;;;;;;;6181061;23;20341;-45
2021/01/09 03:00:37;;;;;;;2.60;0.38;;;;;;;;;;6182358;23;20674;-47
2021/01/09 03:03:05;;;;;;;6.63;0.50;;;;;;;;;;6182366;23;20326;-47
2021/01/09 03:05:32;;;;;;;3.15;0.70;;;;;;;;;;6182478;23;20009;-45
2021/01/09 03:07:59;;;;;;;1.00;0.32;;;;;;;;;;6181593;23;20001;-44
2021/01/09 03:10:26;;;;;;;0.77;0.30;;;;;;;;;;6182362;23;20088;-46
2021/01/09 03:12:53;;;;;;;3.85;0.70;;;;;;;;;;6182433;23;20059;-44
2021/01/09 03:15:20;;;;;;;5.68;0.50;;;;;;;;;;6182415;23;19998;-44
2021/01/09 03:17:49;;;;;;;1.70;0.32;;;;;;;;;;6182948;23;20005;-45
2021/01/09 03:20:17;;;;;;;5.47;0.45;;;;;;;;;;6184681;23;20072;-45
2021/01/09 03:22:44;;;;;;;4.97;0.30;;;;;;;;;;6184482;23;20015;-49
2021/01/09 03:25:12;;;;;;;0.95;0.30;;;;;;;;;;6184421;23;20009;-50
2021/01/09 03:27:40;;;;;;;1.35;0.52;;;;;;;;;;6184203;23;20059;-46
2021/01/09 03:30:07;;;;;;;1.95;0.43;;;;;;;;;;6184333;23;20426;-44
2021/01/09 03:32:35;;;;;;;4.88;0.40;;;;;;;;;;6184491;23;20013;-44
2021/01/09 03:35:02;;;;;;;0.98;0.40;;;;;;;;;;6184285;23;20080;-43
2021/01/09 03:37:29;;;;;;;0.98;0.40;;;;;;;;;;6184405;23;20025;-43
2021/01/09 03:39:57;;;;;;;10.35;2.05;;;;;;;;;;6184593;23;20363;-44
2021/01/09 03:42:24;;;;;;;0.45;0.22;;;;;;;;;;6184246;23;20067;-48
2021/01/09 03:44:51;;;;;;;0.45;0.30;;;;;;;;;;6184044;23;20080;-44
2021/01/09 03:47:18;;;;;;;1.65;0.30;;;;;;;;;;6184361;23;20001;-46
2021/01/09 03:49:45;;;;;;;1.42;0.25;;;;;;;;;;6184180;23;20334;-49
2021/01/09 03:52:12;;;;;;;5.47;0.25;;;;;;;;;;6184293;23;20020;-45
2021/01/09 03:54:40;;;;;;;0.20;0.13;;;;;;;;;;6184449;23;20441;-51
2021/01/09 03:57:07;;;;;;;0.20;0.20;;;;;;;;;;6184212;23;20007;-45
2021/01/09 03:59:35;;;;;;;1.25;0.20;;;;;;;;;;6184176;23;20602;-44
2021/01/09 04:02:03;;;;;;;0.08;0.08;;;;;;;;;;6184508;23;20002;-49
2021/01/09 04:04:31;;;;;;;0.10;0.10;;;;;;;;;;6184784;23;20012;-48
2021/01/09 04:06:58;;;;;;;3.80;0.20;;;;;;;;;;6184449;23;20008;-44
2021/01/09 04:09:25;;;;;;;0.93;0.30;;;;;;;;;;6184432;23;20015;-49
2021/01/09 04:11:52;;;;;;;3.17;0.10;;;;;;;;;;6183744;23;20017;-43
2021/01/09 04:14:20;;;;;;;0.50;0.20;;;;;;;;;;6184020;23;20001;-49
2021/01/09 04:16:47;;;;;;;1.65;0.30;;;;;;;;;;6184056;23;20456;-45
2021/01/09 04:19:14;;;;;;;0.88;0.13;;;;;;;;;;6184308;23;20080;-44
2021/01/09 04:21:57;;;;;;;1.70;0.22;;;;;;;;;;6183830;23;20028;-46
2021/01/09 04:24:25;;;;;;;0.10;0.10;;;;;;;;;;6183700;23;20353;-43
2021/01/09 04:26:53;;;;;;;0.90;0.20;;;;;;;;;;6184376;23;20036;-45
2021/01/09 04:29:20;;;;;;;0.50;0.30;;;;;;;;;;6184106;23;20011;-48
2021/01/09 04:31:49;;;;;;;0.10;0.10;;;;;;;;;;6183463;23;20449;-44
2021/01/09 04:34:17;;;;;;;4.75;0.20;;;;;;;;;;6183812;23;20432;-44
2021/01/09 04:36:44;;;;;;;0.10;0.10;;;;;;;;;;6183989;23;20001;-47
2021/01/09 04:39:13;;;;;;;0.10;0.10;;;;;;;;;;6183828;23;20405;-49
2021/01/09 04:41:41;;;;;;;0.20;0.10;;;;;;;;;;6183631;23;20009;-46
2021/01/09 04:44:09;;;;;;;0.75;0.20;;;;;;;;;;6183979;23;20012;-44
2021/01/09 04:46:45;;;;;;;0.10;0.10;;;;;;;;;;6183888;23;20036;-44
2021/01/09 04:49:12;;;;;;;0.40;0.30;;;;;;;;;;6183986;23;20325;-44
2021/01/09 04:51:39;;;;;;;0.30;0.10;;;;;;;;;;6183262;23;20037;-47
2021/01/09 04:54:07;;;;;;;1.45;0.30;;;;;;;;;;6182667;23;20044;-46
2021/01/09 04:56:36;;;;;;;2.60;0.30;;;;;;;;;;6184132;23;20440;-46
2021/01/09 04:59:03;;;;;;;0.32;0.20;;;;;;;;;;6183837;23;20475;-43
2021/01/09 05:01:31;;;;;;;0.20;0.10;;;;;;;;;;6184117;23;20028;-46
2021/01/09 05:03:59;;;;;;;0.15;0.10;;;;;;;;;;6183514;23;20005;-46
2021/01/09 05:06:26;;;;;;;3.55;0.13;;;;;;;;;;6183792;23;20391;-49
2021/01/09 05:08:53;;;;;;;0.55;0.20;;;;;;;;;;6183692;23;20406;-44
2021/01/09 05:11:22;;;;;;;0.00;0.00;;;;;;;;;;6182461;23;20377;-47
2021/01/09 05:13:49;;;;;;;0.65;0.10;;;;;;;;;;6183303;23;20012;-44
2021/01/09 05:16:17;;;;;;;4.30;0.13;;;;;;;;;;6182070;23;19997;-48
2021/01/09 05:18:44;;;;;;;0.35;0.22;;;;;;;;;;6184166;23;20080;-49
2021/01/09 05:21:11;;;;;;;0.40;0.15;;;;;;;;;;6183689;23;20330;-47
2021/01/09 05:23:49;;;;;;;2.17;0.30;;;;;;;;;;6183892;23;20103;-47
2021/01/09 05:26:17;;;;;;;0.10;0.10;;;;;;;;;;6184541;23;19997;-50
2021/01/09 05:28:51;;;;;;;0.10;0.10;;;;;;;;;;6184858;23;20001;-55
2021/01/09 05:31:19;;;;;;;0.10;0.10;;;;;;;;;;6184233;23;20009;-46
2021/01/09 05:33:48;;;;;;;0.30;0.28;;;;;;;;;;6184685;23;20005;-44
2021/01/09 05:36:15;;;;;;;0.10;0.10;;;;;;;;;;6185148;23;20005;-45
2021/01/09 05:38:43;;;;;;;0.90;0.30;;;;;;;;;;6184626;23;20008;-45
2021/01/09 05:41:11;;;;;;;0.30;0.20;;;;;;;;;;6184622;23;20005;-46
2021/01/09 05:43:39;;;;;;;1.13;0.28;;;;;;;;;;6184839;23;20005;-44
2021/01/09 05:46:07;;;;;;;5.00;0.20;;;;;;;;;;6184850;23;20000;-44
2021/01/09 05:48:35;;;;;;;0.15;0.10;;;;;;;;;;6184672;23;20001;-44
2021/01/09 05:51:04;;;;;;;1.73;0.20;;;;;;;;;;6184755;23;20072;-44
2021/01/09 05:53:37;;;;;;;0.20;0.10;;;;;;;;;;6184671;23;20013;-45
2021/01/09 05:56:05;;;;;;;1.17;0.13;;;;;;;;;;6184585;23;20056;-45
2021/01/09 05:58:32;;;;;;;1.17;0.57;;;;;;;;;;6183344;23;20001;-44
2021/01/09 06:00:59;;;;;;;2.35;0.15;;;;;;;;;;6184830;23;20075;-46
2021/01/09 06:03:35;;;;;;;0.80;0.20;;;;;;;;;;6184646;23;20006;-46
2021/01/09 06:06:06;;;;;;;0.10;0.10;;;;;;;;;;6184761;23;20008;-46
2021/01/09 06:08:33;;;;;;;0.40;0.17;;;;;;;;;;6184936;23;20004;-46
2021/01/09 06:11:04;;;;;;;0.10;0.10;;;;;;;;;;6184972;23;20009;-46
2021/01/09 06:13:32;;;;;;;0.10;0.10;;;;;;;;;;6184707;23;20009;-47
2021/01/09 06:16:04;;;;;;;0.20;0.20;;;;;;;;;;6184658;23;20004;-46
2021/01/09 06:18:30;;;;;;;;;;;;;;;;;;6185536;23;20004;-46
2021/01/09 06:20:57;;;;;;;0.10;0.10;;;;;;;;;;6184539;23;20252;-46
2021/01/09 06:23:24;;;;;;;0.22;0.20;;;;;;;;;;6184354;23;19997;-47
2021/01/09 06:25:57;;;;;;;0.10;0.10;;;;;;;;;;6184907;23;20009;-49
2021/01/09 06:28:24;;;;;;;0.28;0.20;;;;;;;;;;6184530;23;20007;-47
2021/01/09 06:30:57;;;;;;;1.13;0.20;;;;;;;;;;6184310;23;20007;-44
2021/01/09 06:33:24;;;;;;;0.25;0.25;;;;;;;;;;6184597;23;20009;-44
2021/01/09 06:35:55;;;;;;;0.55;0.30;;;;;;;;;;6184645;23;20017;-46
2021/01/09 06:38:22;;;;;;;0.15;0.15;;;;;;;;;;6184574;23;20451;-45
2021/01/09 06:40:50;;;;;;;0.45;0.30;;;;;;;;;;6184377;23;19997;-46
2021/01/09 06:43:18;;;;;;;0.28;0.28;;;;;;;;;;6184641;23;20005;-48
2021/01/09 06:45:45;;;;;;;0.10;0.10;;;;;;;;;;6184418;23;20024;-47
2021/01/09 06:48:12;;;;;;;0.22;0.10;;;;;;;;;;6184432;23;20001;-44
2021/01/09 06:50:39;;;;;;;0.20;0.13;;;;;;;;;;6184493;23;20021;-46
2021/01/09 06:53:14;;;;;;;0.60;0.20;;;;;;;;;;6184526;23;20080;-45
2021/01/09 06:55:41;;;;;;;0.30;0.15;;;;;;;;;;6186314;23;20492;-45
2021/01/09 06:58:08;;;;;;;0.47;0.20;;;;;;;;;;6186430;23;20001;-44
2021/01/09 07:00:36;;;;;;;0.15;0.15;;;;;;;;;;6186584;23;19997;-44
2021/01/09 07:03:10;;;;;;;0.63;0.22;;;;;;;;;;6186179;23;19997;-45
2021/01/09 07:05:44;;;;;;;0.20;0.15;;;;;;;;;;6184757;23;20426;-46
2021/01/09 07:08:12;;;;;;;0.10;0.10;;;;;;;;;;6186175;23;20000;-46
2021/01/09 07:10:47;;;;;;;0.10;0.10;;;;;;;;;;6184914;23;20001;-45
2021/01/09 07:13:18;;;;;;;0.25;0.20;;;;;;;;;;6186115;23;20096;-45
2021/01/09 07:15:45;;;;;;;0.30;0.20;;;;;;;;;;6186360;23;20425;-45
2021/01/09 07:18:12;;;;;;;0.40;0.20;;;;;;;;;;6186419;23;20019;-45
2021/01/09 07:20:42;;;;;;;0.10;0.10;;;;;;;;;;6184509;23;20363;-45
2021/01/09 07:23:10;;;;;;;0.77;0.10;;;;;;;;;;6186034;23;20123;-45
2021/01/09 07:25:38;;;;;;;0.75;0.30;;;;;;;;;;6186042;23;20020;-46
2021/01/09 07:28:14;;;;;;;0.77;0.10;;;;;;;;;;6186206;23;20008;-45
2021/01/09 07:30:41;;;;;;;0.22;0.17;;;;;;;;;;6184368;23;20016;-45
2021/01/09 07:33:11;;;;;;;0.35;0.20;;;;;;;;;;6185738;23;20012;-45
2021/01/09 07:35:38;;;;;;;0.25;0.20;;;;;;;;;;6186153;23;20341;-44
2021/01/09 07:38:07;;;;;;;0.65;0.45;;;;;;;;;;6186081;23;20001;-46
2021/01/09 07:40:46;;;;;;;0.90;0.30;;;;;;;;;;6185946;23;20008;-45
2021/01/09 07:43:31;;;;;;;1.10;0.80;;;;;;;;;;6185610;23;20008;-44
2021/01/09 07:46:00;;;;;;;0.22;0.20;;;;;;;;;;6185906;23;20008;-46
2021/01/09 07:48:32;;;;;;;2.15;0.82;;;;;;;;;;6186138;23;19997;-46
2021/01/09 07:50:59;;;;;;;1.23;0.90;;;;;;;;;;6186079;23;20413;-45
2021/01/09 07:53:27;;;;;;;1.40;0.95;;;;;;;;;;6185796;23;20028;-44
2021/01/09 07:55:55;;;;;;;3.30;1.20;;;;;;;;;;6185861;23;20001;-49
2021/01/09 07:58:40;;;;;;;6.90;1.75;;;;;;;;;;6186043;23;20001;-49
2021/01/09 08:01:07;;;;;;;5.43;2.30;;;;;;;;;;6186041;23;20417;-48
2021/01/09 08:03:34;;;;;;;7.18;3.08;;;;;;;;;;6185370;23;20432;-46
2021/01/09 08:06:02;;;;;;;7.45;3.15;;;;;;;;;;6185667;23;20337;-45
2021/01/09 08:08:29;;;;;;;4.07;2.20;;;;;;;;;;6185884;23;20011;-46
2021/01/09 08:10:56;;;;;;;4.45;1.65;;;;;;;;;;6185687;23;20004;-48
2021/01/09 08:13:25;;;;;;;4.15;1.17;;;;;;;;;;6185403;23;20016;-49
2021/01/09 08:15:53;;;;;;;4.80;1.27;;;;;;;;;;6185810;23;20001;-46
2021/01/09 08:18:20;;;;;;;6.22;1.95;;;;;;;;;;6185765;23;20058;-47
2021/01/09 08:20:50;;;;;;;4.65;2.20;;;;;;;;;;6185644;23;20001;-50
2021/01/09 08:23:17;;;;;;;8.60;2.60;;;;;;;;;;6185793;23;19997;-45
2021/01/09 08:25:46;;;;;;;7.03;2.65;;;;;;;;;;6185470;23;20021;-48
2021/01/09 08:28:15;;;;;;;6.10;2.90;;;;;;;;;;6185776;23;20005;-46
2021/01/09 08:30:42;;;;;;;4.75;2.00;;;;;;;;;;6185487;23;20001;-46
2021/01/09 08:33:10;;;;;;;4.75;1.65;;;;;;;;;;6185596;23;20060;-46
2021/01/09 08:35:42;;;;;;;4.50;1.50;;;;;;;;;;6185629;23;20007;-46
2021/01/09 08:38:09;;;;;;;3.05;1.05;;;;;;;;;;6185498;23;20009;-46
2021/01/09 08:40:36;;;;;;;2.97;0.93;;;;;;;;;;6185413;23;20001;-46
2021/01/09 08:43:04;;;;;;;2.85;0.90;;;;;;;;;;6185639;23;20991;-49
2021/01/09 08:45:49;;;;;;;2.35;0.90;;;;;;;;;;6185381;23;19997;-49
2021/01/09 08:48:20;;;;;;;2.00;0.85;;;;;;;;;;6183946;23;20009;-46
2021/01/09 08:50:47;;;;;;;1.48;0.60;;;;;;;;;;6185699;23;19997;-45
2021/01/09 08:53:15;;;;;;;1.30;0.35;;;;;;;;;;6185155;23;20136;-44
2021/01/09 08:55:43;;;;;;;1.63;0.40;;;;;;;;;;6183767;23;20334;-46
2021/01/09 08:58:12;;;;;;;1.92;0.55;;;;;;;;;;6185536;23;20005;-46
2021/01/09 09:00:39;;;;;;;1.45;0.80;;;;;;;;;;6185432;23;19997;-45
2021/01/09 09:03:07;;;;;;;5.35;0.98;;;;;;;;;;6185058;23;20311;-45
2021/01/09 09:05:34;;;;;;;2.85;0.55;;;;;;;;;;6185214;23;20039;-46
2021/01/09 09:08:02;;;;;;;1.10;0.52;;;;;;;;;;6185233;23;20036;-45
2021/01/09 09:10:29;;;;;;;1.92;0.55;;;;;;;;;;6184938;23;20001;-44
2021/01/09 09:13:15;;;;;;;0.75;0.40;;;;;;;;;;6184948;23;20333;-45
2021/01/09 09:15:41;;;;;;;0.70;0.30;;;;;;;;;;6184646;23;20004;-45
2021/01/09 09:18:10;;;;;;;1.73;0.95;;;;;;;;;;6185181;23;20016;-46
2021/01/09 09:20:38;;;;;;;3.85;1.90;;;;;;;;;;6184835;23;20067;-45
2021/01/09 09:23:34;;;;;;;4.25;1.80;;;;;;;;;;6184995;23;20108;-47
2021/01/09 09:26:05;;;;;;;3.60;1.95;;;;;;;;;;6166259;23;20025;-44
2021/01/09 09:28:42;;;;;;;6.07;2.55;;;;;;;;;;6185274;23;20087;-45
2021/01/09 09:31:23;;;;;;;5.70;2.28;;;;;;;;;;6184849;23;20072;-45
2021/01/09 09:33:56;;;;;;;4.80;2.10;;;;;;;;;;6185068;23;20005;-45
2021/01/09 09:36:23;;;;;;;3.97;2.10;;;;;;;;;;6184584;23;20076;-46
2021/01/09 09:38:50;;;;;;;6.80;2.85;;;;;;;;;;6184700;23;19997;-46
2021/01/09 09:41:17;;;;;;;8.85;3.55;;;;;;;;;;6184802;23;20001;-46
2021/01/09 09:43:54;;;;;;;5.53;2.13;;;;;;;;;;6184916;23;20532;-46
2021/01/09 09:46:21;;;;;;;1.90;0.70;;;;;;;;;;6183223;23;20325;-45
2021/01/09 09:48:48;;;;;;;1.80;0.80;;;;;;;;;;6184846;23;20001;-46
2021/01/09 09:51:15;;;;;;;2.67;1.08;;;;;;;;;;6184925;23;20001;-44
2021/01/09 09:53:56;;;;;;;1.48;0.80;;;;;;;;;;6184601;23;20008;-45
2021/01/09 09:56:24;;;;;;;3.38;0.68;;;;;;;;;;6184660;23;20001;-47
2021/01/09 09:59:01;;;;;;;1.92;0.70;;;;;;;;;;6184844;23;20008;-45
2021/01/09 10:01:29;;;;;;;2.13;1.00;;;;;;;;;;6184675;23;20429;-46
2021/01/09 10:03:56;;;;;;;1.48;0.90;;;;;;;;;;6184849;23;20005;-47
2021/01/09 10:06:24;;;;;;;2.03;0.90;;;;;;;;;;6184595;23;20325;-46
2021/01/09 10:08:51;;;;;;;3.05;0.80;;;;;;;;;;6182919;23;20325;-46
2021/01/09 10:11:18;;;;;;;3.03;1.10;;;;;;;;;;6184653;23;20073;-46
2021/01/09 10:13:45;;;;;;;1.75;0.85;;;;;;;;;;6184565;23;20001;-46
2021/01/09 10:16:12;;;;;;;1.92;0.52;;;;;;;;;;6184465;23;19997;-44
2021/01/09 10:18:39;;;;;;;2.10;0.43;;;;;;;;;;6184578;23;20008;-45
2021/01/09 10:21:06;;;;;;;1.48;0.50;;;;;;;;;;6184433;23;20001;-45
2021/01/09 10:23:33;;;;;;;2.08;0.50;;;;;;;;;;6184010;23;20429;-46
2021/01/09 10:26:00;;;;;;;3.05;0.60;;;;;;;;;;6184829;23;20012;-45
2021/01/09 10:28:27;;;;;;;1.30;0.40;;;;;;;;;;6184397;23;20005;-44
2021/01/09 10:30:54;;;;;;;2.08;0.50;;;;;;;;;;6184341;23;19997;-45
2021/01/09 10:33:21;;;;;;;1.05;0.40;;;;;;;;;;6184473;23;20008;-44
2021/01/09 10:35:50;;;;;;;0.35;0.30;;;;;;;;;;6184675;23;20445;-44
2021/01/09 10:38:17;;;;;;;1.95;0.52;;;;;;;;;;6184273;23;20322;-44
2021/01/09 10:40:44;;;;;;;2.72;0.45;;;;;;;;;;6184439;23;20437;-44
2021/01/09 10:43:11;;;;;;;0.77;0.40;;;;;;;;;;6184400;23;20445;-44
2021/01/09 10:45:38;;;;;;;0.73;0.30;;;;;;;;;;6184436;23;20365;-44
2021/01/09 10:48:05;;;;;;;1.00;0.50;;;;;;;;;;6183022;23;20088;-45
2021/01/09 10:50:33;;;;;;;0.85;0.40;;;;;;;;;;6184373;23;20001;-44
2021/01/09 10:53:00;;;;;;;0.20;0.20;;;;;;;;;;6182548;23;20075;-45
2021/01/09 10:55:26;;;;;;;1.10;0.40;;;;;;;;;;6184426;23;20001;-45
2021/01/09 10:57:54;;;;;;;2.58;0.30;;;;;;;;;;6184359;23;20124;-45
2021/01/09 11:00:21;;;;;;;1.85;0.30;;;;;;;;;;6184353;23;19997;-44
2021/01/09 11:02:48;;;;;;;0.30;0.30;;;;;;;;;;6184502;23;20413;-45
2021/01/09 11:05:15;;;;;;;1.10;0.40;;;;;;;;;;6184265;23;20076;-46
2021/01/09 11:07:42;;;;;;;2.38;0.40;;;;;;;;;;6184211;23;20016;-45
2021/01/09 11:10:09;;;;;;;0.90;0.20;;;;;;;;;;6184609;23;20322;-45
2021/01/09 11:12:36;;;;;;;0.55;0.20;;;;;;;;;;6184076;23;20403;-45
2021/01/09 11:15:03;;;;;;;0.93;0.20;;;;;;;;;;6184252;23;19997;-46
2021/01/09 11:17:30;;;;;;;0.28;0.20;;;;;;;;;;6182832;23;20068;-48
2021/01/09 11:19:57;;;;;;;0.20;0.20;;;;;;;;;;6184504;23;20004;-47
2021/01/09 11:22:24;;;;;;;5.40;0.45;;;;;;;;;;6184088;23;20029;-45
2021/01/09 11:24:51;;;;;;;0.68;0.45;;;;;;;;;;6184277;23;20013;-45
2021/01/09 11:29:48;;;;;;;1.00;0.45;;;;;;;;;;6182794;23;20021;-47
2021/01/09 11:32:15;;;;;;;1.77;0.20;;;;;;;;;;6184915;23;20013;-47
2021/01/09 11:34:42;;;;;;;1.88;0.20;;;;;;;;;;6184830;23;20001;-46
2021/01/09 11:37:09;;;;;;;0.70;0.20;;;;;;;;;;6183990;23;20012;-46
2021/01/09 11:39:36;;;;;;;1.85;0.50;;;;;;;;;;6185780;23;20024;-49
2021/01/09 11:42:03;;;;;;;0.70;0.32;;;;;;;;;;6186612;23;19997;-49
2021/01/09 11:44:30;;;;;;;0.25;0.20;;;;;;;;;;6186642;23;20025;-47
2021/01/09 11:46:57;;;;;;;0.60;0.40;;;;;;;;;;6186636;23;20001;-45
2021/01/09 11:49:25;;;;;;;1.27;0.40;;;;;;;;;;6186510;23;20027;-45
2021/01/09 11:51:54;;;;;;;0.65;0.30;;;;;;;;;;6186189;23;20040;-48
2021/01/09 11:54:21;;;;;;;3.90;0.50;;;;;;;;;;6186294;23;20068;-46
2021/01/09 11:56:48;;;;;;;2.42;0.40;;;;;;;;;;6186868;23;20001;-48
2021/01/09 11:59:15;;;;;;;0.63;0.25;;;;;;;;;;6186184;23;20080;-46
2021/01/09 12:01:42;;;;;;;0.93;0.20;;;;;;;;;;6186325;23;20009;-47
2021/01/09 12:04:09;;;;;;;1.50;0.20;;;;;;;;;;6186617;23;20029;-45
2021/01/09 12:06:36;;;;;;;0.25;0.20;;;;;;;;;;6186427;23;20001;-44
2021/01/09 12:09:06;;;;;;;0.30;0.30;;;;;;;;;;6186246;23;20051;-44
2021/01/09 12:11:34;;;;;;;0.30;0.20;;;;;;;;;;6186445;23;20009;-44
2021/01/09 12:14:01;;;;;;;0.20;0.20;;;;;;;;;;6186001;23;20421;-44
2021/01/09 12:16:32;;;;;;;0.55;0.22;;;;;;;;;;6186207;23;20000;-44
2021/01/09 12:18:59;;;;;;;0.93;0.30;;;;;;;;;;6186462;23;20001;-44
2021/01/09 12:21:29;;;;;;;0.25;0.20;;;;;;;;;;6186312;23;20005;-44
2021/01/09 12:23:57;;;;;;;1.15;0.43;;;;;;;;;;6186169;23;20009;-44
2021/01/09 12:26:24;;;;;;;0.30;0.30;;;;;;;;;;6185945;23;20009;-44
2021/01/09 12:28:51;;;;;;;1.70;0.30;;;;;;;;;;6185780;23;20333;-44
2021/01/09 12:31:18;;;;;;;0.85;0.30;;;;;;;;;;6186003;23;20005;-45
2021/01/09 12:33:45;;;;;;;0.22;0.20;;;;;;;;;;6186218;23;20001;-45
2021/01/09 12:36:18;;;;;;;0.63;0.40;;;;;;;;;;6185931;23;20076;-44
2021/01/09 12:38:45;;;;;;;0.85;0.28;;;;;;;;;;6186019;23;20001;-44
2021/01/09 12:41:12;;;;;;;0.25;0.17;;;;;;;;;;6185802;23;20005;-44
2021/01/09 12:43:40;;;;;;;1.25;0.50;;;;;;;;;;6185970;23;20005;-44
2021/01/09 12:46:07;;;;;;;0.40;0.30;;;;;;;;;;6186063;23;20062;-44
2021/01/09 12:48:34;;;;;;;0.90;0.30;;;;;;;;;;6185767;23;20064;-45
2021/01/09 12:51:01;;;;;;;0.50;0.30;;;;;;;;;;6185986;23;20418;-44
2021/01/09 12:53:29;;;;;;;0.20;0.20;;;;;;;;;;6185625;23;20013;-43
2021/01/09 12:56:04;;;;;;;1.27;0.32;;;;;;;;;;6185669;23;20008;-44
2021/01/09 12:58:31;;;;;;;0.73;0.20;;;;;;;;;;6185763;23;20005;-45
2021/01/09 13:00:58;;;;;;;0.32;0.28;;;;;;;;;;6185574;23;20001;-43
2021/01/09 13:03:25;;;;;;;0.85;0.30;;;;;;;;;;6185552;23;20001;-45
2021/01/09 13:05:52;;;;;;;0.20;0.20;;;;;;;;;;6185601;23;20009;-42
2021/01/09 13:08:19;;;;;;;0.82;0.20;;;;;;;;;;6185283;23;20020;-43
2021/01/09 13:10:46;;;;;;;0.90;0.38;;;;;;;;;;6185632;23;20001;-44
2021/01/09 13:13:13;;;;;;;0.22;0.20;;;;;;;;;;6185515;23;20084;-44
2021/01/09 13:15:40;;;;;;;0.40;0.30;;;;;;;;;;6185916;23;20015;-45
2021/01/09 13:18:07;;;;;;;0.30;0.20;;;;;;;;;;6185431;23;20011;-44
2021/01/09 13:20:34;;;;;;;0.90;0.20;;;;;;;;;;6185831;23;20013;-44
2021/01/09 13:23:01;;;;;;;0.20;0.20;;;;;;;;;;6185749;23;20064;-45
2021/01/09 13:25:28;;;;;;;3.20;0.40;;;;;;;;;;6185481;23;20353;-45
2021/01/09 13:27:55;;;;;;;1.55;0.40;;;;;;;;;;6184963;23;20432;-45
2021/01/09 13:30:22;;;;;;;0.57;0.30;;;;;;;;;;6185713;23;20012;-44
2021/01/09 13:32:49;;;;;;;0.50;0.30;;;;;;;;;;6185421;23;20067;-45
2021/01/09 13:35:16;;;;;;;1.20;0.32;;;;;;;;;;6185505;23;20008;-47
2021/01/09 13:37:43;;;;;;;1.73;0.47;;;;;;;;;;6185397;23;20329;-44
2021/01/09 13:40:10;;;;;;;0.20;0.20;;;;;;;;;;6185399;23;20005;-48
2021/01/09 13:42:37;;;;;;;0.73;0.40;;;;;;;;;;6184920;23;20005;-44
2021/01/09 13:45:04;;;;;;;0.25;0.25;;;;;;;;;;6185370;23;20001;-45
2021/01/09 13:47:34;;;;;;;1.10;0.20;;;;;;;;;;6185404;23;20005;-47
2021/01/09 13:50:01;;;;;;;0.20;0.20;;;;;;;;;;6185197;23;20005;-46
2021/01/09 13:52:28;;;;;;;0.63;0.20;;;;;;;;;;6185339;23;20377;-45
2021/01/09 13:54:55;;;;;;;0.98;0.40;;;;;;;;;;6185020;23;20099;-45
2021/01/09 13:57:22;;;;;;;0.68;0.30;;;;;;;;;;6185112;23;20013;-44
2021/01/09 13:59:49;;;;;;;0.43;0.20;;;;;;;;;;6185536;23;20433;-43
2021/01/09 14:02:16;;;;;;;0.85;0.40;;;;;;;;;;6184878;23;20008;-48
2021/01/09 14:04:43;;;;;;;1.35;0.32;;;;;;;;;;6156683;23;20321;-44
2021/01/09 14:07:10;;;;;;;0.43;0.28;;;;;;;;;;6184551;23;20001;-44
2021/01/09 14:09:37;;;;;;;0.50;0.30;;;;;;;;;;6184067;23;20001;-46
2021/01/09 14:12:06;;;;;;;2.47;0.30;;;;;;;;;;6183980;23;20023;-44
2021/01/09 14:14:33;;;;;;;0.90;0.20;;;;;;;;;;6183272;23;20055;-42
2021/01/09 14:17:00;;;;;;;3.13;0.50;;;;;;;;;;6183610;23;20051;-44
2021/01/09 14:19:27;;;;;;;0.80;0.20;;;;;;;;;;6183622;23;20001;-42
2021/01/09 14:21:54;;;;;;;0.20;0.20;;;;;;;;;;6184371;23;20029;-42
2021/01/09 14:24:21;;;;;;;0.20;0.20;;;;;;;;;;6183345;23;20063;-42
2021/01/09 14:26:48;;;;;;;0.70;0.30;;;;;;;;;;6184090;23;20013;-43
2021/01/09 14:29:15;;;;;;;2.20;0.50;;;;;;;;;;6183771;23;20009;-44
2021/01/09 14:31:43;;;;;;;0.93;0.25;;;;;;;;;;6184344;23;20516;-42
2021/01/09 14:34:10;;;;;;;2.58;0.20;;;;;;;;;;6183689;23;19997;-42
2021/01/09 14:36:37;;;;;;;1.13;0.22;;;;;;;;;;6183941;23;20005;-42
2021/01/09 14:39:05;;;;;;;0.82;0.28;;;;;;;;;;6157441;23;20076;-45
2021/01/09 14:41:32;;;;;;;3.30;0.43;;;;;;;;;;6184104;23;20433;-45
2021/01/09 14:43:59;;;;;;;1.15;0.40;;;;;;;;;;6184061;23;19997;-43
2021/01/09 14:46:26;;;;;;;1.92;0.47;;;;;;;;;;6183999;23;20016;-44
2021/01/09 14:48:53;;;;;;;0.85;0.30;;;;;;;;;;6183343;23;20028;-44
2021/01/09 14:51:21;;;;;;;0.88;0.30;;;;;;;;;;6184346;23;20001;-45